This demonstration page uses our WeatherBlox Daily Observations layout. Learn more.

39.29038, -76.61219

Hourly Observations for October 13, 2015

Temp ( °F °C ) Dew Point ( °F °C ) Humidity (%) Winds ( mph kmh ) Pressure ( in mb ) Visibility ( mi km ) Precip ( " mm )
12:54 am 00:54 undefined 61 16.1 53 11.7 75 75 undefined N/A 29.67 1005 N/A 0 0
1:54 am 01:54 undefined 59 15 53 11.7 81 81 undefined N/A 29.65 1004 N/A 0 0
2:54 am 02:54 undefined 59 15 54 12.2 83 83 undefined N/A 29.63 1003 N/A 0 0
3:54 am 03:54 undefined 59 15 55 12.8 87 87 undefined N/A 29.6 1002 N/A 0 0
4:54 am 04:54 undefined 59 15 55 12.8 87 87 undefined N/A 29.6 1003 N/A 0 0
5:54 am 05:54 undefined 58 14.4 55 12.8 90 90 undefined N/A 29.59 1002 N/A 0 0
6:54 am 06:54 undefined 58 14.4 55 12.8 90 90 undefined N/A 29.58 1002 N/A 0 0
7:54 am 07:54 undefined 59 15 55 12.8 87 87 undefined N/A 29.57 1001 N/A 0 0
8:54 am 08:54 undefined 61 16.1 56 13.3 84 84 undefined N/A 29.6 1002 N/A 0 0
9:54 am 09:54 undefined 62 16.7 57 13.9 84 84 undefined N/A 29.61 1003 N/A 0 0
10:54 am 10:54 undefined 64 17.8 57 13.9 78 78 undefined N/A 29.6 1003 N/A 0 0
11:54 am 11:54 undefined 67 19.4 57 13.9 71 71 undefined N/A 29.6 1002 N/A 0 0
12:54 pm 12:54 undefined 70 21.1 58 14.4 66 66 undefined N/A 29.57 1002 N/A 0 0
1:54 pm 13:54 undefined 71 21.7 58 14.4 63 63 undefined N/A 29.56 1001 N/A 0 0
2:54 pm 14:54 undefined 75 23.9 59 15 58 58 undefined N/A 29.54 1001 N/A 0 0
3:54 pm 15:54 undefined 75 23.9 53 11.7 46 46 undefined N/A 29.55 1001 N/A 0 0
4:54 pm 16:54 undefined 76 24.4 51 10.6 42 42 undefined N/A 29.56 1001 N/A 0 0
5:54 pm 17:54 undefined 75 23.9 50 10 41 41 undefined N/A 29.57 1001 N/A 0 0
6:54 pm 18:54 undefined 73 22.8 48 8.9 41 41 undefined N/A 29.59 1002 N/A 0 0
7:54 pm 19:54 undefined 72 22.2 49 9.4 44 44 undefined N/A 29.62 1003 N/A 0 0
8:54 pm 20:54 undefined 70 21.1 48 8.9 46 46 undefined N/A 29.64 1004 N/A 0 0
9:54 pm 21:54 undefined 69 20.6 49 9.4 49 49 undefined N/A 29.68 1005 N/A 0 0
10:54 pm 22:54 undefined 67 19.4 47 8.3 49 49 undefined N/A 29.72 1006 N/A 0 0
11:54 pm 23:54 undefined 64 17.8 47 8.3 54 54 undefined N/A 29.75 1007 N/A 0 0

Powered by AerisWeather